EKBI

Billund Airport

Billund, Denmark
METAR EKBI 122120Z AUTO 06007KT 9999 BKN024/// 02/M00 Q1030
Observed Flight Rules
Dec-12 @ 21:20 UTC (40 minutes ago) Marginal Visual Flight Rules
Wind Visibility Clouds
60° at 7 knots 10,000+ meters
  • Broken at 2,400' AGL
Temperatures Readings
Current 2°C / 36°F
Dewpoint 0°C / 32°F
Humidity 87%
Altimeter 30.41" Hg
Pressure 1030 hPa
Elevation 66
METAR EKBI 122120Z AUTO 06007KT 9999 BKN024/// 02/M00 Q1030
Observed Flight Rules
Dec-12 @ 21:20 UTC
(40 minutes ago)
MVFR
Wind Visibility
60° at 7 knots 10,000+ meters
Clouds
  • Broken at 2,400' AGL
Temperature Dewpoint
2°C / 36°F 0°C / 32°F
Humidity Altimeter Pressure
87% 30.41" Hg 1030 hPa